Metar
Geneve

LSGG 281650Z 19009KT 9999 FEW030 BKN070 05/01 Q1012 NOSIG

Payerne

LSMP 281650Z 23014KT 9999 BKN047 05/M01 Q1010 RMK BLU

Eplatures

LSGC 281650Z AUTO 24013G24KT 210V270 9999 SCT017 BKN020 BKN023 SCT///CB 00/M03 Q1007

Berne

LSZB 281650Z 23010G21KT 190V280 9999 FEW050 BKN060 05/M02 Q1009 NOSIG

Granges

LSZG 281650Z AUTO 22023KT 9999 BKN050 05/01 Q1008

Sion

LSGS 281650Z 26016KT 9999 -RA BKN015 OVC040 04/01 Q1011

Annecy

LFLP 281700Z AUTO VRB03KT 9999 FEW030 OVC072 04/02 Q1014 TEMPO 3000 SHRA FEW025TCU OVC030

Taf
Geneve

TAF TAF LSGG 281425Z 2815/2921 23015G25KT 9999 -SHRA FEW010 BKN035 TX05/2815Z TN04/2906Z TX08/2915Z TEMPO 2818/2823 RA BECMG 2902/2904 21012KT TEMPO 2913/2915 SHRA

Eplatures

TAF AMD TAF AMD LSGC 270646Z 2706/2718 VRB03KT 9000 OVC015 BECMG 2712/2715 9999 SCT020

Berne

TAF AMD TAF AMD LSZB 222054Z 2220/2224 CNL

Granges

TAF AMD LSZG 222054Z 2220/2224 CNL

Sion

TAF AMD LSGS 242023Z 2415/2424 CNL

Annecy

TAF LFLP 281400Z 2815/2915 21009KT 9999 BKN035 TEMPO 2815/2915 21010G25KT -SHRA FEW025TCU OVC030 PROB40 TEMPO 2815/2915 3000 SHRA